sensor_id;sensor_type;location;lat;lon;timestamp;temperature;humidity
5457;DHT22;2751;49.802;9.944;2023-05-24T00:02:09;12.20;99.90
5457;DHT22;2751;49.802;9.944;2023-05-24T00:04:38;12.10;99.90
5457;DHT22;2751;49.802;9.944;2023-05-24T00:07:06;12.00;99.90
5457;DHT22;2751;49.802;9.944;2023-05-24T00:09:34;12.00;99.90
5457;DHT22;2751;49.802;9.944;2023-05-24T00:12:01;12.10;99.90
5457;DHT22;2751;49.802;9.944;2023-05-24T00:14:28;12.30;99.90
5457;DHT22;2751;49.802;9.944;2023-05-24T00:16:55;12.00;99.90
5457;DHT22;2751;49.802;9.944;2023-05-24T00:19:21;12.10;99.90
5457;DHT22;2751;49.802;9.944;2023-05-24T00:21:48;12.00;99.90
5457;DHT22;2751;49.802;9.944;2023-05-24T00:24:15;12.10;99.90
5457;DHT22;2751;49.802;9.944;2023-05-24T00:26:44;12.10;99.90
5457;DHT22;2751;49.802;9.944;2023-05-24T00:29:11;12.10;99.90
5457;DHT22;2751;49.802;9.944;2023-05-24T00:31:37;12.10;99.90
5457;DHT22;2751;49.802;9.944;2023-05-24T00:34:04;12.10;99.90
5457;DHT22;2751;49.802;9.944;2023-05-24T00:36:32;12.30;99.90
5457;DHT22;2751;49.802;9.944;2023-05-24T00:38:59;12.00;99.90
5457;DHT22;2751;49.802;9.944;2023-05-24T00:41:26;12.00;99.90
5457;DHT22;2751;49.802;9.944;2023-05-24T00:43:54;12.00;99.90
5457;DHT22;2751;49.802;9.944;2023-05-24T00:46:26;12.00;99.90
5457;DHT22;2751;49.802;9.944;2023-05-24T00:48:53;11.90;99.90
5457;DHT22;2751;49.802;9.944;2023-05-24T00:51:21;12.30;99.90
5457;DHT22;2751;49.802;9.944;2023-05-24T00:53:48;11.80;99.90
5457;DHT22;2751;49.802;9.944;2023-05-24T00:56:16;11.80;99.90
5457;DHT22;2751;49.802;9.944;2023-05-24T00:58:44;11.70;99.90
5457;DHT22;2751;49.802;9.944;2023-05-24T01:01:12;11.90;99.90
5457;DHT22;2751;49.802;9.944;2023-05-24T01:03:39;12.10;99.90
5457;DHT22;2751;49.802;9.944;2023-05-24T01:06:07;11.80;99.90
5457;DHT22;2751;49.802;9.944;2023-05-24T01:08:42;11.70;99.90
5457;DHT22;2751;49.802;9.944;2023-05-24T01:11:18;12.10;99.90
5457;DHT22;2751;49.802;9.944;2023-05-24T01:13:51;11.90;99.90
5457;DHT22;2751;49.802;9.944;2023-05-24T01:16:24;11.60;99.90
5457;DHT22;2751;49.802;9.944;2023-05-24T01:18:55;11.70;99.90
5457;DHT22;2751;49.802;9.944;2023-05-24T01:21:43;12.10;99.90
5457;DHT22;2751;49.802;9.944;2023-05-24T01:24:24;12.00;99.90
5457;DHT22;2751;49.802;9.944;2023-05-24T01:27:05;11.90;99.90
5457;DHT22;2751;49.802;9.944;2023-05-24T01:29:32;11.60;99.90
5457;DHT22;2751;49.802;9.944;2023-05-24T01:32:00;11.80;99.90
5457;DHT22;2751;49.802;9.944;2023-05-24T01:34:27;11.50;99.90
5457;DHT22;2751;49.802;9.944;2023-05-24T01:36:54;11.80;99.90
5457;DHT22;2751;49.802;9.944;2023-05-24T01:39:23;11.50;99.90
5457;DHT22;2751;49.802;9.944;2023-05-24T01:42:01;11.60;99.90
5457;DHT22;2751;49.802;9.944;2023-05-24T01:44:36;11.90;99.90
5457;DHT22;2751;49.802;9.944;2023-05-24T01:47:13;12.00;99.90
5457;DHT22;2751;49.802;9.944;2023-05-24T01:49:48;11.60;99.90
5457;DHT22;2751;49.802;9.944;2023-05-24T01:52:18;11.50;99.90
5457;DHT22;2751;49.802;9.944;2023-05-24T01:54:50;11.50;99.90
5457;DHT22;2751;49.802;9.944;2023-05-24T01:57:18;11.50;99.90
5457;DHT22;2751;49.802;9.944;2023-05-24T01:59:49;11.50;99.90
5457;DHT22;2751;49.802;9.944;2023-05-24T02:02:16;11.40;99.90
5457;DHT22;2751;49.802;9.944;2023-05-24T02:04:43;11.40;99.90
5457;DHT22;2751;49.802;9.944;2023-05-24T02:07:10;11.40;99.90
5457;DHT22;2751;49.802;9.944;2023-05-24T02:09:37;11.30;99.90
5457;DHT22;2751;49.802;9.944;2023-05-24T02:12:05;11.30;99.90
5457;DHT22;2751;49.802;9.944;2023-05-24T02:14:32;11.20;99.90
5457;DHT22;2751;49.802;9.944;2023-05-24T02:17:04;11.20;99.90
5457;DHT22;2751;49.802;9.944;2023-05-24T02:19:31;11.20;99.90
5457;DHT22;2751;49.802;9.944;2023-05-24T02:21:59;11.40;99.90
5457;DHT22;2751;49.802;9.944;2023-05-24T02:24:26;11.10;99.90
5457;DHT22;2751;49.802;9.944;2023-05-24T02:26:52;11.10;99.90
5457;DHT22;2751;49.802;9.944;2023-05-24T02:29:20;11.10;99.90
5457;DHT22;2751;49.802;9.944;2023-05-24T02:31:47;11.20;99.90
5457;DHT22;2751;49.802;9.944;2023-05-24T02:34:20;11.00;99.90
5457;DHT22;2751;49.802;9.944;2023-05-24T02:36:48;11.10;99.90
5457;DHT22;2751;49.802;9.944;2023-05-24T02:39:15;11.00;99.90
5457;DHT22;2751;49.802;9.944;2023-05-24T02:41:42;11.40;99.90
5457;DHT22;2751;49.802;9.944;2023-05-24T02:44:09;11.00;99.90
5457;DHT22;2751;49.802;9.944;2023-05-24T02:46:36;11.40;99.90
5457;DHT22;2751;49.802;9.944;2023-05-24T02:49:03;11.00;99.90
5457;DHT22;2751;49.802;9.944;2023-05-24T02:51:31;11.00;99.90
5457;DHT22;2751;49.802;9.944;2023-05-24T02:53:58;11.00;99.90
5457;DHT22;2751;49.802;9.944;2023-05-24T02:56:25;10.90;99.90
5457;DHT22;2751;49.802;9.944;2023-05-24T02:58:52;11.10;99.90
5457;DHT22;2751;49.802;9.944;2023-05-24T03:01:20;11.30;99.90
5457;DHT22;2751;49.802;9.944;2023-05-24T03:03:47;10.90;99.90
5457;DHT22;2751;49.802;9.944;2023-05-24T03:06:14;10.80;99.90
5457;DHT22;2751;49.802;9.944;2023-05-24T03:08:42;10.80;99.90
5457;DHT22;2751;49.802;9.944;2023-05-24T03:11:09;10.80;99.90
5457;DHT22;2751;49.802;9.944;2023-05-24T03:13:36;10.70;99.90
5457;DHT22;2751;49.802;9.944;2023-05-24T03:16:03;10.70;99.90
5457;DHT22;2751;49.802;9.944;2023-05-24T03:18:30;10.70;99.90
5457;DHT22;2751;49.802;9.944;2023-05-24T03:20:57;10.70;99.90
5457;DHT22;2751;49.802;9.944;2023-05-24T03:23:23;10.70;99.90
5457;DHT22;2751;49.802;9.944;2023-05-24T03:25:52;10.70;99.90
5457;DHT22;2751;49.802;9.944;2023-05-24T03:28:18;10.60;99.90
5457;DHT22;2751;49.802;9.944;2023-05-24T03:30:46;10.60;99.90
5457;DHT22;2751;49.802;9.944;2023-05-24T03:33:13;10.70;99.90
5457;DHT22;2751;49.802;9.944;2023-05-24T03:35:40;10.70;99.90
5457;DHT22;2751;49.802;9.944;2023-05-24T03:38:07;10.70;99.90
5457;DHT22;2751;49.802;9.944;2023-05-24T03:40:34;10.70;99.90
5457;DHT22;2751;49.802;9.944;2023-05-24T03:43:02;10.70;99.90
5457;DHT22;2751;49.802;9.944;2023-05-24T03:45:29;10.70;99.90
5457;DHT22;2751;49.802;9.944;2023-05-24T03:47:56;10.70;99.90
5457;DHT22;2751;49.802;9.944;2023-05-24T03:50:23;10.80;99.90
5457;DHT22;2751;49.802;9.944;2023-05-24T03:52:50;10.70;99.90
5457;DHT22;2751;49.802;9.944;2023-05-24T03:55:17;10.60;99.90
5457;DHT22;2751;49.802;9.944;2023-05-24T03:57:44;10.60;99.90
5457;DHT22;2751;49.802;9.944;2023-05-24T04:00:13;10.70;99.90
5457;DHT22;2751;49.802;9.944;2023-05-24T04:02:40;10.60;99.90
5457;DHT22;2751;49.802;9.944;2023-05-24T04:05:07;10.90;99.90
5457;DHT22;2751;49.802;9.944;2023-05-24T04:07:35;10.70;99.90
5457;DHT22;2751;49.802;9.944;2023-05-24T04:10:02;11.00;99.90
5457;DHT22;2751;49.802;9.944;2023-05-24T04:12:29;10.60;99.90
5457;DHT22;2751;49.802;9.944;2023-05-24T04:14:57;10.70;99.90
5457;DHT22;2751;49.802;9.944;2023-05-24T04:17:25;10.70;99.90
5457;DHT22;2751;49.802;9.944;2023-05-24T04:19:54;10.70;99.90
5457;DHT22;2751;49.802;9.944;2023-05-24T04:22:20;10.60;99.90
5457;DHT22;2751;49.802;9.944;2023-05-24T04:24:48;10.70;99.90
5457;DHT22;2751;49.802;9.944;2023-05-24T04:27:15;10.70;99.90
5457;DHT22;2751;49.802;9.944;2023-05-24T04:29:44;10.80;99.90
5457;DHT22;2751;49.802;9.944;2023-05-24T04:32:14;10.90;99.90
5457;DHT22;2751;49.802;9.944;2023-05-24T04:34:43;10.80;99.90
5457;DHT22;2751;49.802;9.944;2023-05-24T04:37:11;10.80;99.90
5457;DHT22;2751;49.802;9.944;2023-05-24T04:39:41;10.90;99.90
5457;DHT22;2751;49.802;9.944;2023-05-24T04:42:08;11.20;99.90
5457;DHT22;2751;49.802;9.944;2023-05-24T04:44:35;10.80;99.90
5457;DHT22;2751;49.802;9.944;2023-05-24T04:47:02;10.80;99.90
5457;DHT22;2751;49.802;9.944;2023-05-24T04:49:29;10.80;99.90
5457;DHT22;2751;49.802;9.944;2023-05-24T04:51:58;10.90;99.90
5457;DHT22;2751;49.802;9.944;2023-05-24T04:54:24;10.90;99.90
5457;DHT22;2751;49.802;9.944;2023-05-24T04:56:52;11.30;99.90
5457;DHT22;2751;49.802;9.944;2023-05-24T04:59:18;11.00;99.90
5457;DHT22;2751;49.802;9.944;2023-05-24T05:01:46;11.00;99.90
5457;DHT22;2751;49.802;9.944;2023-05-24T05:04:13;11.00;99.90
5457;DHT22;2751;49.802;9.944;2023-05-24T05:06:40;11.10;99.90
5457;DHT22;2751;49.802;9.944;2023-05-24T05:09:10;11.10;99.90
5457;DHT22;2751;49.802;9.944;2023-05-24T05:11:38;11.20;99.90
5457;DHT22;2751;49.802;9.944;2023-05-24T05:14:07;11.30;99.90
5457;DHT22;2751;49.802;9.944;2023-05-24T05:16:34;11.50;99.90
5457;DHT22;2751;49.802;9.944;2023-05-24T05:19:01;11.40;99.90
5457;DHT22;2751;49.802;9.944;2023-05-24T05:21:30;11.40;99.90
5457;DHT22;2751;49.802;9.944;2023-05-24T05:23:58;11.40;99.90
5457;DHT22;2751;49.802;9.944;2023-05-24T05:26:27;11.50;99.90
5457;DHT22;2751;49.802;9.944;2023-05-24T05:28:54;11.50;99.90
5457;DHT22;2751;49.802;9.944;2023-05-24T05:31:22;11.60;99.90
5457;DHT22;2751;49.802;9.944;2023-05-24T05:33:49;12.00;99.90
5457;DHT22;2751;49.802;9.944;2023-05-24T05:36:16;11.60;99.90
5457;DHT22;2751;49.802;9.944;2023-05-24T05:38:43;11.60;99.90
5457;DHT22;2751;49.802;9.944;2023-05-24T05:41:11;11.80;99.90
5457;DHT22;2751;49.802;9.944;2023-05-24T05:43:39;11.80;99.90
5457;DHT22;2751;49.802;9.944;2023-05-24T05:46:06;11.60;99.90
5457;DHT22;2751;49.802;9.944;2023-05-24T05:48:32;11.70;99.90
5457;DHT22;2751;49.802;9.944;2023-05-24T05:50:59;11.70;99.90
5457;DHT22;2751;49.802;9.944;2023-05-24T05:53:26;12.20;99.90
5457;DHT22;2751;49.802;9.944;2023-05-24T05:55:53;11.90;99.90
5457;DHT22;2751;49.802;9.944;2023-05-24T05:58:20;12.30;99.90
5457;DHT22;2751;49.802;9.944;2023-05-24T06:00:48;12.10;99.90
5457;DHT22;2751;49.802;9.944;2023-05-24T06:03:15;12.10;99.90
5457;DHT22;2751;49.802;9.944;2023-05-24T06:05:42;12.00;99.90
5457;DHT22;2751;49.802;9.944;2023-05-24T06:08:09;12.30;99.90
5457;DHT22;2751;49.802;9.944;2023-05-24T06:10:36;12.10;99.90
5457;DHT22;2751;49.802;9.944;2023-05-24T06:13:03;12.30;99.90
5457;DHT22;2751;49.802;9.944;2023-05-24T06:15:30;12.60;99.90
5457;DHT22;2751;49.802;9.944;2023-05-24T06:17:59;12.60;99.90
5457;DHT22;2751;49.802;9.944;2023-05-24T06:20:26;12.90;99.90
5457;DHT22;2751;49.802;9.944;2023-05-24T06:22:53;13.10;99.90
5457;DHT22;2751;49.802;9.944;2023-05-24T06:25:21;13.10;99.90
5457;DHT22;2751;49.802;9.944;2023-05-24T06:27:49;13.10;99.90
5457;DHT22;2751;49.802;9.944;2023-05-24T06:30:16;12.80;99.90
5457;DHT22;2751;49.802;9.944;2023-05-24T06:32:43;13.20;99.90
5457;DHT22;2751;49.802;9.944;2023-05-24T06:35:11;13.20;99.90
5457;DHT22;2751;49.802;9.944;2023-05-24T06:37:38;13.10;99.90
5457;DHT22;2751;49.802;9.944;2023-05-24T06:40:06;13.00;99.90
5457;DHT22;2751;49.802;9.944;2023-05-24T06:42:36;12.90;99.90
5457;DHT22;2751;49.802;9.944;2023-05-24T06:45:04;12.80;99.90
5457;DHT22;2751;49.802;9.944;2023-05-24T06:47:31;12.80;99.90
5457;DHT22;2751;49.802;9.944;2023-05-24T06:49:57;12.80;99.90
5457;DHT22;2751;49.802;9.944;2023-05-24T06:52:26;12.80;99.90
5457;DHT22;2751;49.802;9.944;2023-05-24T06:54:53;12.80;99.90
5457;DHT22;2751;49.802;9.944;2023-05-24T06:57:20;12.90;99.90
5457;DHT22;2751;49.802;9.944;2023-05-24T06:59:47;12.90;99.90
5457;DHT22;2751;49.802;9.944;2023-05-24T07:02:14;13.00;99.90
5457;DHT22;2751;49.802;9.944;2023-05-24T07:04:41;13.10;99.90
5457;DHT22;2751;49.802;9.944;2023-05-24T07:07:08;13.10;99.90
5457;DHT22;2751;49.802;9.944;2023-05-24T07:09:39;13.20;99.90
5457;DHT22;2751;49.802;9.944;2023-05-24T07:12:07;13.30;99.90
5457;DHT22;2751;49.802;9.944;2023-05-24T07:14:34;13.40;99.90
5457;DHT22;2751;49.802;9.944;2023-05-24T07:17:01;13.50;99.90
5457;DHT22;2751;49.802;9.944;2023-05-24T07:19:28;13.70;99.90
5457;DHT22;2751;49.802;9.944;2023-05-24T07:21:55;13.80;99.90
5457;DHT22;2751;49.802;9.944;2023-05-24T07:24:22;13.90;99.90
5457;DHT22;2751;49.802;9.944;2023-05-24T07:26:50;13.90;99.90
5457;DHT22;2751;49.802;9.944;2023-05-24T07:29:18;14.00;99.90
5457;DHT22;2751;49.802;9.944;2023-05-24T07:31:46;14.00;99.90
5457;DHT22;2751;49.802;9.944;2023-05-24T07:34:13;14.00;99.90
5457;DHT22;2751;49.802;9.944;2023-05-24T07:36:40;14.20;99.90
5457;DHT22;2751;49.802;9.944;2023-05-24T07:39:07;14.20;99.90
5457;DHT22;2751;49.802;9.944;2023-05-24T07:41:35;14.30;99.90
5457;DHT22;2751;49.802;9.944;2023-05-24T07:44:03;14.50;99.90
5457;DHT22;2751;49.802;9.944;2023-05-24T07:46:30;14.70;99.20
5457;DHT22;2751;49.802;9.944;2023-05-24T07:48:58;14.60;98.90
5457;DHT22;2751;49.802;9.944;2023-05-24T07:51:25;14.80;99.20
5457;DHT22;2751;49.802;9.944;2023-05-24T07:53:52;15.10;98.10
5457;DHT22;2751;49.802;9.944;2023-05-24T07:56:19;15.40;97.50
5457;DHT22;2751;49.802;9.944;2023-05-24T07:58:46;15.50;96.60
5457;DHT22;2751;49.802;9.944;2023-05-24T08:01:15;15.70;96.10
5457;DHT22;2751;49.802;9.944;2023-05-24T08:03:42;15.50;96.20
5457;DHT22;2751;49.802;9.944;2023-05-24T08:06:10;15.60;96.00
5457;DHT22;2751;49.802;9.944;2023-05-24T08:08:38;15.70;95.60
5457;DHT22;2751;49.802;9.944;2023-05-24T08:11:05;15.90;95.60
5457;DHT22;2751;49.802;9.944;2023-05-24T08:13:32;16.20;94.90
5457;DHT22;2751;49.802;9.944;2023-05-24T08:15:59;16.10;94.50
5457;DHT22;2751;49.802;9.944;2023-05-24T08:18:27;16.20;94.10
5457;DHT22;2751;49.802;9.944;2023-05-24T08:20:54;16.50;93.70
5457;DHT22;2751;49.802;9.944;2023-05-24T08:23:21;16.80;93.00
5457;DHT22;2751;49.802;9.944;2023-05-24T08:25:48;16.60;93.30
5457;DHT22;2751;49.802;9.944;2023-05-24T08:28:15;16.90;92.40
5457;DHT22;2751;49.802;9.944;2023-05-24T08:30:42;17.40;91.50
5457;DHT22;2751;49.802;9.944;2023-05-24T08:33:10;17.60;91.10
5457;DHT22;2751;49.802;9.944;2023-05-24T08:35:38;17.70;90.50
5457;DHT22;2751;49.802;9.944;2023-05-24T08:38:05;18.10;90.00
5457;DHT22;2751;49.802;9.944;2023-05-24T08:40:32;18.30;88.10
5457;DHT22;2751;49.802;9.944;2023-05-24T08:43:00;18.30;88.00
5457;DHT22;2751;49.802;9.944;2023-05-24T08:45:29;18.30;87.30
5457;DHT22;2751;49.802;9.944;2023-05-24T08:47:56;18.00;86.30
5457;DHT22;2751;49.802;9.944;2023-05-24T08:50:23;18.00;93.50
5457;DHT22;2751;49.802;9.944;2023-05-24T08:52:52;18.00;87.40
5457;DHT22;2751;49.802;9.944;2023-05-24T08:55:20;18.00;87.40
5457;DHT22;2751;49.802;9.944;2023-05-24T08:57:48;18.30;86.10
5457;DHT22;2751;49.802;9.944;2023-05-24T09:00:16;18.50;83.70
5457;DHT22;2751;49.802;9.944;2023-05-24T09:02:45;18.90;82.50
5457;DHT22;2751;49.802;9.944;2023-05-24T09:05:14;19.30;80.70
5457;DHT22;2751;49.802;9.944;2023-05-24T09:07:43;19.50;80.40
5457;DHT22;2751;49.802;9.944;2023-05-24T09:10:11;20.90;78.00
5457;DHT22;2751;49.802;9.944;2023-05-24T09:12:42;23.20;72.00
5457;DHT22;2751;49.802;9.944;2023-05-24T09:15:10;25.10;64.00
5457;DHT22;2751;49.802;9.944;2023-05-24T09:17:37;25.00;57.60
5457;DHT22;2751;49.802;9.944;2023-05-24T09:20:06;23.90;58.60
5457;DHT22;2751;49.802;9.944;2023-05-24T09:22:36;23.40;57.00
5457;DHT22;2751;49.802;9.944;2023-05-24T09:25:04;22.40;56.60
5457;DHT22;2751;49.802;9.944;2023-05-24T09:27:35;20.70;58.90
5457;DHT22;2751;49.802;9.944;2023-05-24T09:30:05;20.10;59.00
5457;DHT22;2751;49.802;9.944;2023-05-24T09:32:34;19.60;58.40
5457;DHT22;2751;49.802;9.944;2023-05-24T09:35:01;19.30;57.60
5457;DHT22;2751;49.802;9.944;2023-05-24T09:37:28;19.00;58.80
5457;DHT22;2751;49.802;9.944;2023-05-24T09:39:55;18.90;59.90
5457;DHT22;2751;49.802;9.944;2023-05-24T09:42:24;19.60;59.30
5457;DHT22;2751;49.802;9.944;2023-05-24T09:45:01;19.90;59.70
5457;DHT22;2751;49.802;9.944;2023-05-24T09:47:30;18.90;60.00
5457;DHT22;2751;49.802;9.944;2023-05-24T09:49:58;18.90;60.40
5457;DHT22;2751;49.802;9.944;2023-05-24T09:52:24;18.40;62.50
5457;DHT22;2751;49.802;9.944;2023-05-24T09:54:51;18.40;62.30
5457;DHT22;2751;49.802;9.944;2023-05-24T09:57:19;18.40;62.70
5457;DHT22;2751;49.802;9.944;2023-05-24T09:59:48;18.80;63.10
5457;DHT22;2751;49.802;9.944;2023-05-24T10:02:16;18.40;63.30
5457;DHT22;2751;49.802;9.944;2023-05-24T10:04:45;18.10;64.80
5457;DHT22;2751;49.802;9.944;2023-05-24T10:07:12;17.80;65.00
5457;DHT22;2751;49.802;9.944;2023-05-24T10:09:39;17.60;63.90
5457;DHT22;2751;49.802;9.944;2023-05-24T10:12:07;17.50;63.80
5457;DHT22;2751;49.802;9.944;2023-05-24T10:14:35;17.60;64.60
5457;DHT22;2751;49.802;9.944;2023-05-24T10:17:02;17.40;67.20
5457;DHT22;2751;49.802;9.944;2023-05-24T10:19:32;17.40;65.40
5457;DHT22;2751;49.802;9.944;2023-05-24T10:21:59;17.10;65.80
5457;DHT22;2751;49.802;9.944;2023-05-24T10:24:32;17.00;65.10
5457;DHT22;2751;49.802;9.944;2023-05-24T10:27:01;17.00;65.60
5457;DHT22;2751;49.802;9.944;2023-05-24T10:29:40;17.10;65.70
5457;DHT22;2751;49.802;9.944;2023-05-24T10:32:11;17.20;67.20
5457;DHT22;2751;49.802;9.944;2023-05-24T10:34:40;17.20;67.30
5457;DHT22;2751;49.802;9.944;2023-05-24T10:37:09;17.50;66.80
5457;DHT22;2751;49.802;9.944;2023-05-24T10:39:36;17.80;66.10
5457;DHT22;2751;49.802;9.944;2023-05-24T10:42:03;17.90;65.60
5457;DHT22;2751;49.802;9.944;2023-05-24T10:44:31;17.90;65.70
5457;DHT22;2751;49.802;9.944;2023-05-24T10:47:05;18.00;65.70
5457;DHT22;2751;49.802;9.944;2023-05-24T10:49:33;17.90;65.20
5457;DHT22;2751;49.802;9.944;2023-05-24T10:52:06;18.10;65.00
5457;DHT22;2751;49.802;9.944;2023-05-24T10:54:33;17.60;67.80
5457;DHT22;2751;49.802;9.944;2023-05-24T10:57:01;17.60;66.20
5457;DHT22;2751;49.802;9.944;2023-05-24T10:59:32;17.40;66.40
5457;DHT22;2751;49.802;9.944;2023-05-24T11:02:03;16.70;68.30
5457;DHT22;2751;49.802;9.944;2023-05-24T11:04:36;16.50;69.50
5457;DHT22;2751;49.802;9.944;2023-05-24T11:07:06;16.60;69.80
5457;DHT22;2751;49.802;9.944;2023-05-24T11:09:35;16.80;70.30
5457;DHT22;2751;49.802;9.944;2023-05-24T11:12:14;16.90;68.50
5457;DHT22;2751;49.802;9.944;2023-05-24T11:14:46;16.80;69.60
5457;DHT22;2751;49.802;9.944;2023-05-24T11:17:14;16.90;69.80
5457;DHT22;2751;49.802;9.944;2023-05-24T11:19:45;16.70;70.00
5457;DHT22;2751;49.802;9.944;2023-05-24T11:22:14;16.70;70.30
5457;DHT22;2751;49.802;9.944;2023-05-24T11:24:41;16.70;73.00
5457;DHT22;2751;49.802;9.944;2023-05-24T11:27:11;17.00;70.00
5457;DHT22;2751;49.802;9.944;2023-05-24T11:29:42;17.10;69.00
5457;DHT22;2751;49.802;9.944;2023-05-24T11:32:14;16.70;69.40
5457;DHT22;2751;49.802;9.944;2023-05-24T11:34:43;16.70;69.00
5457;DHT22;2751;49.802;9.944;2023-05-24T11:37:11;17.00;69.60
5457;DHT22;2751;49.802;9.944;2023-05-24T11:39:39;18.30;67.80
5457;DHT22;2751;49.802;9.944;2023-05-24T11:42:07;19.10;66.20
5457;DHT22;2751;49.802;9.944;2023-05-24T11:44:35;19.40;64.80
5457;DHT22;2751;49.802;9.944;2023-05-24T11:47:05;19.30;64.50
5457;DHT22;2751;49.802;9.944;2023-05-24T11:49:32;19.10;64.80
5457;DHT22;2751;49.802;9.944;2023-05-24T11:52:00;20.10;61.90
5457;DHT22;2751;49.802;9.944;2023-05-24T11:54:27;21.30;59.60
5457;DHT22;2751;49.802;9.944;2023-05-24T11:56:55;23.00;59.30
5457;DHT22;2751;49.802;9.944;2023-05-24T11:59:24;23.80;56.90
5457;DHT22;2751;49.802;9.944;2023-05-24T12:01:56;23.40;56.00
5457;DHT22;2751;49.802;9.944;2023-05-24T12:04:25;22.80;56.50
5457;DHT22;2751;49.802;9.944;2023-05-24T12:06:52;22.50;56.80
5457;DHT22;2751;49.802;9.944;2023-05-24T12:09:20;23.00;54.90
5457;DHT22;2751;49.802;9.944;2023-05-24T12:11:48;22.70;53.70
5457;DHT22;2751;49.802;9.944;2023-05-24T12:14:18;23.30;51.90
5457;DHT22;2751;49.802;9.944;2023-05-24T12:16:45;23.50;53.00
5457;DHT22;2751;49.802;9.944;2023-05-24T12:19:15;25.50;50.50
5457;DHT22;2751;49.802;9.944;2023-05-24T12:21:43;24.80;50.10
5457;DHT22;2751;49.802;9.944;2023-05-24T12:24:10;25.20;49.00
5457;DHT22;2751;49.802;9.944;2023-05-24T12:26:40;23.60;50.50
5457;DHT22;2751;49.802;9.944;2023-05-24T12:29:09;22.90;50.50
5457;DHT22;2751;49.802;9.944;2023-05-24T12:31:39;22.00;51.10
5457;DHT22;2751;49.802;9.944;2023-05-24T12:34:08;21.70;51.30
5457;DHT22;2751;49.802;9.944;2023-05-24T12:36:37;22.00;51.10
5457;DHT22;2751;49.802;9.944;2023-05-24T12:39:16;21.50;51.50
5457;DHT22;2751;49.802;9.944;2023-05-24T12:41:43;21.50;52.10
5457;DHT22;2751;49.802;9.944;2023-05-24T12:44:10;22.70;51.90
5457;DHT22;2751;49.802;9.944;2023-05-24T12:46:39;25.60;49.40
5457;DHT22;2751;49.802;9.944;2023-05-24T12:49:06;28.70;1.00
5457;DHT22;2751;49.802;9.944;2023-05-24T12:51:33;30.50;1.00
5457;DHT22;2751;49.802;9.944;2023-05-24T12:54:01;31.30;1.00
5457;DHT22;2751;49.802;9.944;2023-05-24T12:56:29;32.10;1.00
5457;DHT22;2751;49.802;9.944;2023-05-24T12:58:56;33.00;1.00
5457;DHT22;2751;49.802;9.944;2023-05-24T13:01:23;31.30;1.00
5457;DHT22;2751;49.802;9.944;2023-05-24T13:03:51;32.40;1.00
5457;DHT22;2751;49.802;9.944;2023-05-24T13:06:19;32.60;1.00
5457;DHT22;2751;49.802;9.944;2023-05-24T13:08:45;32.90;1.00
5457;DHT22;2751;49.802;9.944;2023-05-24T13:11:12;33.90;1.00
5457;DHT22;2751;49.802;9.944;2023-05-24T13:13:39;34.20;1.00
5457;DHT22;2751;49.802;9.944;2023-05-24T13:16:06;34.00;1.00
5457;DHT22;2751;49.802;9.944;2023-05-24T13:18:35;33.70;1.00
5457;DHT22;2751;49.802;9.944;2023-05-24T13:21:04;33.80;1.00
5457;DHT22;2751;49.802;9.944;2023-05-24T13:23:31;33.10;1.00
5457;DHT22;2751;49.802;9.944;2023-05-24T13:25:59;31.30;1.00
5457;DHT22;2751;49.802;9.944;2023-05-24T13:28:28;29.60;1.00
5457;DHT22;2751;49.802;9.944;2023-05-24T13:30:55;27.70;1.00
5457;DHT22;2751;49.802;9.944;2023-05-24T13:33:22;25.70;1.00
5457;DHT22;2751;49.802;9.944;2023-05-24T13:35:49;26.00;1.00
5457;DHT22;2751;49.802;9.944;2023-05-24T13:38:18;27.10;1.00
5457;DHT22;2751;49.802;9.944;2023-05-24T13:40:45;27.30;1.00
5457;DHT22;2751;49.802;9.944;2023-05-24T13:43:12;29.40;1.00
5457;DHT22;2751;49.802;9.944;2023-05-24T13:45:39;30.40;1.00
5457;DHT22;2751;49.802;9.944;2023-05-24T13:48:06;31.30;1.00
5457;DHT22;2751;49.802;9.944;2023-05-24T13:50:34;31.00;1.00
5457;DHT22;2751;49.802;9.944;2023-05-24T13:53:02;29.80;1.00
5457;DHT22;2751;49.802;9.944;2023-05-24T13:55:32;28.90;1.00
5457;DHT22;2751;49.802;9.944;2023-05-24T13:58:00;29.90;1.00
5457;DHT22;2751;49.802;9.944;2023-05-24T14:00:29;31.60;1.00
5457;DHT22;2751;49.802;9.944;2023-05-24T14:02:56;30.50;1.00
5457;DHT22;2751;49.802;9.944;2023-05-24T14:05:23;30.30;1.00
5457;DHT22;2751;49.802;9.944;2023-05-24T14:07:51;30.90;1.00
5457;DHT22;2751;49.802;9.944;2023-05-24T14:10:17;29.70;1.00
5457;DHT22;2751;49.802;9.944;2023-05-24T14:12:46;28.60;1.00
5457;DHT22;2751;49.802;9.944;2023-05-24T14:15:12;28.10;1.00
5457;DHT22;2751;49.802;9.944;2023-05-24T14:17:39;26.90;1.00
5457;DHT22;2751;49.802;9.944;2023-05-24T14:20:07;25.50;1.00
5457;DHT22;2751;49.802;9.944;2023-05-24T14:22:35;24.60;1.00
5457;DHT22;2751;49.802;9.944;2023-05-24T14:25:14;23.70;1.00
5457;DHT22;2751;49.802;9.944;2023-05-24T14:27:43;22.90;1.00
5457;DHT22;2751;49.802;9.944;2023-05-24T14:30:13;22.20;1.00
5457;DHT22;2751;49.802;9.944;2023-05-24T14:32:40;22.00;1.00
5457;DHT22;2751;49.802;9.944;2023-05-24T14:35:07;22.20;1.00
5457;DHT22;2751;49.802;9.944;2023-05-24T14:37:34;24.10;1.00
5457;DHT22;2751;49.802;9.944;2023-05-24T14:40:01;26.00;1.00
5457;DHT22;2751;49.802;9.944;2023-05-24T14:42:28;26.20;1.00
5457;DHT22;2751;49.802;9.944;2023-05-24T14:44:55;26.70;1.00
5457;DHT22;2751;49.802;9.944;2023-05-24T14:47:24;26.00;1.00
5457;DHT22;2751;49.802;9.944;2023-05-24T14:49:51;25.80;1.00
5457;DHT22;2751;49.802;9.944;2023-05-24T14:52:18;26.70;1.00
5457;DHT22;2751;49.802;9.944;2023-05-24T14:54:45;28.30;1.00
5457;DHT22;2751;49.802;9.944;2023-05-24T14:57:12;29.30;1.00
5457;DHT22;2751;49.802;9.944;2023-05-24T14:59:39;28.60;1.00
5457;DHT22;2751;49.802;9.944;2023-05-24T15:02:06;29.20;1.00
5457;DHT22;2751;49.802;9.944;2023-05-24T15:04:34;29.90;1.00
5457;DHT22;2751;49.802;9.944;2023-05-24T15:07:01;30.30;1.00
5457;DHT22;2751;49.802;9.944;2023-05-24T15:09:28;31.00;1.00
5457;DHT22;2751;49.802;9.944;2023-05-24T15:11:55;29.60;1.00
5457;DHT22;2751;49.802;9.944;2023-05-24T15:14:23;28.00;1.00
5457;DHT22;2751;49.802;9.944;2023-05-24T15:16:50;26.80;1.00
5457;DHT22;2751;49.802;9.944;2023-05-24T15:19:16;25.50;1.00
5457;DHT22;2751;49.802;9.944;2023-05-24T15:21:45;25.50;1.00
5457;DHT22;2751;49.802;9.944;2023-05-24T15:24:11;25.80;1.00
5457;DHT22;2751;49.802;9.944;2023-05-24T15:26:39;26.30;1.00
5457;DHT22;2751;49.802;9.944;2023-05-24T15:29:06;25.70;1.00
5457;DHT22;2751;49.802;9.944;2023-05-24T15:31:33;25.90;1.00
5457;DHT22;2751;49.802;9.944;2023-05-24T15:34:00;27.50;1.00
5457;DHT22;2751;49.802;9.944;2023-05-24T15:36:29;29.00;1.00
5457;DHT22;2751;49.802;9.944;2023-05-24T15:38:58;30.50;1.00
5457;DHT22;2751;49.802;9.944;2023-05-24T15:41:25;30.70;1.00
5457;DHT22;2751;49.802;9.944;2023-05-24T15:43:52;29.80;1.00
5457;DHT22;2751;49.802;9.944;2023-05-24T15:46:20;29.40;1.00
5457;DHT22;2751;49.802;9.944;2023-05-24T15:48:47;27.00;1.00
5457;DHT22;2751;49.802;9.944;2023-05-24T15:51:13;27.40;1.00
5457;DHT22;2751;49.802;9.944;2023-05-24T15:53:40;28.60;1.00
5457;DHT22;2751;49.802;9.944;2023-05-24T15:56:09;28.90;1.00
5457;DHT22;2751;49.802;9.944;2023-05-24T15:58:36;28.80;1.00
5457;DHT22;2751;49.802;9.944;2023-05-24T16:01:03;28.90;1.00
5457;DHT22;2751;49.802;9.944;2023-05-24T16:03:30;29.20;1.00
5457;DHT22;2751;49.802;9.944;2023-05-24T16:05:56;29.60;1.00
5457;DHT22;2751;49.802;9.944;2023-05-24T16:08:23;29.30;1.00
5457;DHT22;2751;49.802;9.944;2023-05-24T16:10:52;29.70;1.00